createdAt,value
2019-04-29T00:01:28.209Z,101576.57
2019-04-29T00:03:57.091Z,101583.97
2019-04-29T00:06:25.806Z,101585.66
2019-04-29T00:08:54.537Z,101587.54
2019-04-29T00:11:23.323Z,101592.42
2019-04-29T00:13:51.940Z,101588.39
2019-04-29T00:16:45.375Z,101595.69
2019-04-29T00:19:48.902Z,101596.52
2019-04-29T00:22:17.406Z,101599.45
2019-04-29T00:24:46.161Z,101598.61
2019-04-29T00:27:15.007Z,101595.98
2019-04-29T00:29:43.631Z,101598.91
2019-04-29T00:32:12.246Z,101597.84
2019-04-29T00:34:40.945Z,101600.69
2019-04-29T00:37:27.870Z,101606.17
2019-04-29T00:40:24.932Z,101605.11
2019-04-29T00:43:15.936Z,101607.11
2019-04-29T00:45:44.675Z,101600.45
2019-04-29T00:48:13.292Z,101601.06
2019-04-29T00:50:41.817Z,101605.77
2019-04-29T00:53:10.448Z,101605.88
2019-04-29T00:55:38.960Z,101606.30
2019-04-29T00:58:07.466Z,101608.22
2019-04-29T01:00:39.042Z,101604.27
2019-04-29T01:03:07.753Z,101608.30
2019-04-29T01:05:36.605Z,101602.64
2019-04-29T01:08:05.646Z,101613.63
2019-04-29T01:10:34.161Z,101603.94
2019-04-29T01:13:02.863Z,101600.69
2019-04-29T01:15:31.868Z,101607.27
2019-04-29T01:18:00.314Z,101608.40
2019-04-29T01:20:28.833Z,101606.89
2019-04-29T01:22:57.362Z,101602.65
2019-04-29T01:25:27.530Z,101607.67
2019-04-29T01:28:06.218Z,101603.30
2019-04-29T01:31:07.774Z,101608.03
2019-04-29T01:33:36.553Z,101603.81
2019-04-29T01:36:42.686Z,101608.34
2019-04-29T01:39:12.193Z,101604.05
2019-04-29T01:41:55.154Z,101602.65
2019-04-29T01:44:24.420Z,101608.93
2019-04-29T01:46:52.903Z,101609.80
2019-04-29T01:49:21.404Z,101610.09
2019-04-29T01:51:49.944Z,101616.36
2019-04-29T01:54:18.665Z,101609.48
2019-04-29T01:56:47.280Z,101608.22
2019-04-29T01:59:15.878Z,101609.45
2019-04-29T02:01:44.407Z,101608.69
2019-04-29T02:04:13.171Z,101615.58
2019-04-29T02:06:41.627Z,101619.95
2019-04-29T02:09:15.594Z,101618.50
2019-04-29T02:11:43.792Z,101620.11
2019-04-29T02:14:12.371Z,101624.64
2019-04-29T02:16:40.980Z,101630.44
2019-04-29T02:19:09.483Z,101623.38
2019-04-29T02:21:38.121Z,101627.23
2019-04-29T02:24:15.825Z,101632.08
2019-04-29T02:26:44.346Z,101630.14
2019-04-29T02:29:12.960Z,101631.23
2019-04-29T02:31:42.727Z,101643.16
2019-04-29T02:34:11.355Z,101642.14
2019-04-29T02:36:39.856Z,101648.71
2019-04-29T02:39:19.485Z,101650.23
2019-04-29T02:42:01.709Z,101648.50
2019-04-29T02:44:30.291Z,101648.50
2019-04-29T02:46:58.930Z,101651.53
2019-04-29T02:49:27.457Z,101661.35
2019-04-29T02:51:55.951Z,101655.66
2019-04-29T02:54:26.106Z,101651.06
2019-04-29T02:57:06.291Z,101651.98
2019-04-29T02:59:39.203Z,101643.98
2019-04-29T03:02:15.044Z,101650.15
2019-04-29T03:05:02.188Z,101642.91
2019-04-29T03:07:30.887Z,101639.14
2019-04-29T03:09:59.607Z,101638.14
2019-04-29T03:12:28.134Z,101645.38
2019-04-29T03:14:56.633Z,101640.80
2019-04-29T03:17:25.470Z,101649.17
2019-04-29T03:20:12.672Z,101644.84
2019-04-29T03:22:42.173Z,101642.09
2019-04-29T03:25:11.274Z,101635.64
2019-04-29T03:27:39.885Z,101646.80
2019-04-29T03:30:08.841Z,101646.02
2019-04-29T03:32:37.434Z,101644.23
2019-04-29T03:35:06.162Z,101642.39
2019-04-29T03:37:34.821Z,101648.22
2019-04-29T03:40:03.829Z,101646.13
2019-04-29T03:42:32.396Z,101643.41
2019-04-29T03:45:01.129Z,101645.28
2019-04-29T03:47:29.644Z,101643.70
2019-04-29T03:49:58.150Z,101644.33
2019-04-29T03:52:26.680Z,101645.95
2019-04-29T03:54:55.174Z,101649.03
2019-04-29T03:57:23.690Z,101653.23
2019-04-29T03:59:52.211Z,101655.53
2019-04-29T04:02:39.205Z,101656.27
2019-04-29T04:05:27.699Z,101658.50
2019-04-29T04:08:00.997Z,101660.13
2019-04-29T04:10:29.615Z,101658.36
2019-04-29T04:12:58.118Z,101660.55
2019-04-29T04:15:26.632Z,101660.66
2019-04-29T04:18:00.813Z,101659.02
2019-04-29T04:20:29.306Z,101655.73
2019-04-29T04:22:57.836Z,101663.41
2019-04-29T04:25:26.438Z,101657.79
2019-04-29T04:27:54.948Z,101660.23
2019-04-29T04:30:23.674Z,101660.61
2019-04-29T04:32:52.379Z,101668.42
2019-04-29T04:35:20.979Z,101664.39
2019-04-29T04:37:49.611Z,101671.14
2019-04-29T04:40:24.359Z,101672.80
2019-04-29T04:42:52.988Z,101672.13
2019-04-29T04:45:21.488Z,101676.20
2019-04-29T04:47:50.109Z,101681.73
2019-04-29T04:50:18.846Z,101680.61
2019-04-29T04:52:47.370Z,101677.49
2019-04-29T04:55:16.377Z,101682.23
2019-04-29T04:57:44.921Z,101679.95
2019-04-29T05:00:20.316Z,101679.10
2019-04-29T05:02:49.593Z,101675.81
2019-04-29T05:05:18.375Z,101678.57
2019-04-29T05:07:47.022Z,101677.94
2019-04-29T05:10:15.559Z,101681.02
2019-04-29T05:12:44.061Z,101681.65
2019-04-29T05:15:12.777Z,101685.70
2019-04-29T05:17:41.430Z,101684.55
2019-04-29T05:20:10.471Z,101685.34
2019-04-29T05:22:41.178Z,101691.93
2019-04-29T05:25:10.100Z,101697.00
2019-04-29T05:27:38.616Z,101704.78
2019-04-29T05:30:07.600Z,101703.44
2019-04-29T05:32:36.579Z,101703.65
2019-04-29T05:35:09.020Z,101708.77
2019-04-29T05:37:59.806Z,101705.86
2019-04-29T05:40:57.279Z,101711.91
2019-04-29T05:43:50.155Z,101713.17
2019-04-29T05:46:25.974Z,101714.87
2019-04-29T05:48:54.507Z,101721.28
2019-04-29T05:51:41.474Z,101727.38
2019-04-29T05:54:10.930Z,101730.35
2019-04-29T05:56:39.665Z,101734.20
2019-04-29T05:59:12.675Z,101734.41
2019-04-29T06:01:42.682Z,101732.40
2019-04-29T06:04:11.716Z,101744.10
2019-04-29T06:06:39.939Z,101741.17
2019-04-29T06:09:11.605Z,101742.00
2019-04-29T06:11:39.199Z,101747.11
2019-04-29T06:14:07.887Z,101742.34
2019-04-29T06:17:50.368Z,101744.22
2019-04-29T06:20:22.639Z,101740.19
2019-04-29T06:22:49.710Z,101747.39
2019-04-29T06:25:18.457Z,101746.41
2019-04-29T06:27:46.976Z,101742.15
2019-04-29T06:30:15.700Z,101742.17
2019-04-29T06:32:44.317Z,101751.38
2019-04-29T06:35:14.235Z,101743.94
2019-04-29T06:37:42.955Z,101740.92
2019-04-29T06:40:11.693Z,101750.98
2019-04-29T06:42:40.208Z,101742.05
2019-04-29T06:45:08.809Z,101738.70
2019-04-29T06:47:37.316Z,101740.05
2019-04-29T06:50:06.497Z,101748.37
2019-04-29T06:52:35.173Z,101745.22
2019-04-29T06:55:04.566Z,101754.99
2019-04-29T06:57:33.083Z,101749.16
2019-04-29T07:00:01.715Z,101747.95
2019-04-29T07:02:30.221Z,101746.55
2019-04-29T07:04:59.033Z,101750.72
2019-04-29T07:07:27.672Z,101753.79
2019-04-29T07:09:57.018Z,101751.17
2019-04-29T07:12:25.736Z,101754.80
2019-04-29T07:14:54.258Z,101750.25
2019-04-29T07:17:22.792Z,101756.14
2019-04-29T07:19:51.327Z,101758.47
2019-04-29T07:22:20.891Z,101759.58
2019-04-29T07:24:50.485Z,101755.91
2019-04-29T07:27:19.182Z,101757.00
2019-04-29T07:29:47.705Z,101758.47
2019-04-29T07:32:16.216Z,101759.03
2019-04-29T07:34:44.757Z,101759.10
2019-04-29T07:37:13.285Z,101755.63
2019-04-29T07:39:41.914Z,101756.56
2019-04-29T07:42:10.543Z,101755.94
2019-04-29T07:44:58.725Z,101763.34
2019-04-29T07:47:29.471Z,101760.91
2019-04-29T07:49:58.056Z,101753.31
2019-04-29T07:52:26.666Z,101739.24
2019-04-29T07:54:56.300Z,101745.00
2019-04-29T07:57:24.935Z,101747.78
2019-04-29T07:59:53.553Z,101749.19
2019-04-29T08:02:22.111Z,101745.53
2019-04-29T08:04:50.749Z,101749.69
2019-04-29T08:07:19.459Z,101746.95
2019-04-29T08:09:49.097Z,101746.95
2019-04-29T08:12:18.735Z,101750.88
2019-04-29T08:14:48.946Z,101752.28
2019-04-29T08:17:17.483Z,101758.59
2019-04-29T08:19:46.011Z,101743.47
2019-04-29T08:22:18.116Z,101739.08
2019-04-29T08:24:46.015Z,101742.92
2019-04-29T08:27:15.856Z,101741.63
2019-04-29T08:29:44.454Z,101738.48
2019-04-29T08:32:13.013Z,101738.47
2019-04-29T08:34:41.508Z,101739.17
2019-04-29T08:37:10.140Z,101741.15
2019-04-29T08:39:38.674Z,101744.67
2019-04-29T08:42:10.510Z,101739.04
2019-04-29T08:45:04.811Z,101735.25
2019-04-29T08:47:35.650Z,101727.97
2019-04-29T08:50:04.812Z,101736.06
2019-04-29T08:52:33.649Z,101739.17
2019-04-29T08:55:02.597Z,101742.83
2019-04-29T08:57:31.720Z,101746.34
2019-04-29T09:00:02.647Z,101741.39
2019-04-29T09:02:34.852Z,101735.30
2019-04-29T09:05:06.502Z,101734.41
2019-04-29T09:07:33.321Z,101744.28
2019-04-29T09:10:03.663Z,101745.34
2019-04-29T09:12:32.376Z,101736.35
2019-04-29T09:15:01.095Z,101740.65
2019-04-29T09:17:29.611Z,101734.05
2019-04-29T09:19:58.418Z,101729.20
2019-04-29T09:22:29.116Z,101730.19
2019-04-29T09:25:26.158Z,101730.76
2019-04-29T09:27:56.394Z,101729.81
2019-04-29T09:30:25.333Z,101725.72
2019-04-29T09:32:54.121Z,101722.98
2019-04-29T09:35:23.136Z,101722.91
2019-04-29T09:37:53.972Z,101719.15
2019-04-29T09:40:24.455Z,101722.64
2019-04-29T09:43:14.587Z,101711.44
2019-04-29T09:45:36.828Z,101711.44
2019-04-29T09:48:05.580Z,101705.74
2019-04-29T09:50:38.895Z,101716.55
2019-04-29T09:53:04.753Z,101708.94
2019-04-29T09:55:35.576Z,101694.50
2019-04-29T09:58:04.422Z,101691.47
2019-04-29T10:00:43.572Z,101703.28
2019-04-29T10:03:29.897Z,101698.00
2019-04-29T10:06:12.985Z,101695.66
2019-04-29T10:08:41.762Z,101691.95
2019-04-29T10:11:10.432Z,101690.70
2019-04-29T10:13:39.071Z,101701.85
2019-04-29T10:16:23.861Z,101705.84
2019-04-29T10:19:00.640Z,101696.92
2019-04-29T10:21:30.404Z,101698.13
2019-04-29T10:23:59.364Z,101698.33
2019-04-29T10:26:28.075Z,101697.67
2019-04-29T10:29:01.280Z,101689.75
2019-04-29T10:31:29.825Z,101679.14
2019-04-29T10:33:58.378Z,101672.95
2019-04-29T10:36:27.056Z,101683.57
2019-04-29T10:38:58.582Z,101682.28
2019-04-29T10:41:36.059Z,101679.55
2019-04-29T10:44:29.679Z,101683.36
2019-04-29T10:47:20.194Z,101672.25
2019-04-29T10:49:57.585Z,101672.25
2019-04-29T10:52:26.353Z,101679.59
2019-04-29T10:54:56.516Z,101672.50
2019-04-29T10:57:29.009Z,101675.95
2019-04-29T11:00:02.955Z,101668.69
2019-04-29T11:02:38.917Z,101667.78
2019-04-29T11:05:25.005Z,101661.92
2019-04-29T11:07:58.102Z,101656.58
2019-04-29T11:10:29.043Z,101665.94
2019-04-29T11:12:58.744Z,101673.45
2019-04-29T11:15:32.496Z,101666.45
2019-04-29T11:18:03.616Z,101666.65
2019-04-29T11:20:34.103Z,101666.16
2019-04-29T11:23:41.818Z,101666.12
2019-04-29T11:26:29.012Z,101665.50
2019-04-29T11:28:58.554Z,101661.66
2019-04-29T11:31:27.369Z,101654.14
2019-04-29T11:34:21.641Z,101649.78
2019-04-29T11:36:50.283Z,101654.98
2019-04-29T11:39:23.005Z,101643.94
2019-04-29T11:41:54.628Z,101632.94
2019-04-29T11:44:26.636Z,101632.11
2019-04-29T11:46:53.493Z,101634.36
2019-04-29T11:49:30.141Z,101639.81
2019-04-29T11:52:09.333Z,101629.17
2019-04-29T11:54:29.257Z,101623.84
2019-04-29T11:56:58.185Z,101630.11
2019-04-29T11:59:45.637Z,101628.36
2019-04-29T12:02:45.516Z,101624.52
2019-04-29T12:05:20.593Z,101622.32
2019-04-29T12:07:49.543Z,101615.25
2019-04-29T12:10:18.192Z,101611.03
2019-04-29T12:12:47.768Z,101598.58
2019-04-29T12:15:30.073Z,101598.58
2019-04-29T12:18:11.302Z,101607.11
2019-04-29T12:20:51.185Z,101613.58
2019-04-29T12:23:19.738Z,101596.94
2019-04-29T12:25:48.262Z,101601.25
2019-04-29T12:28:19.100Z,101604.05
2019-04-29T12:30:49.410Z,101596.78
2019-04-29T12:33:32.530Z,101600.66
2019-04-29T12:36:05.313Z,101596.79
2019-04-29T12:38:53.493Z,101597.46
2019-04-29T12:41:51.076Z,101595.66
2019-04-29T12:44:35.509Z,101596.48
2019-04-29T12:47:26.904Z,101589.14
2019-04-29T12:49:53.462Z,101576.20
2019-04-29T12:52:22.172Z,101584.70
2019-04-29T12:54:50.677Z,101583.45
2019-04-29T12:57:23.465Z,101581.84
2019-04-29T12:59:49.819Z,101586.28
2019-04-29T13:02:38.125Z,101582.55
2019-04-29T13:05:19.812Z,101568.55
2019-04-29T13:07:58.780Z,101564.62
2019-04-29T13:10:47.121Z,101563.96
2019-04-29T13:13:20.134Z,101559.11
2019-04-29T13:16:11.889Z,101554.28
2019-04-29T13:19:12.445Z,101552.25
2019-04-29T13:21:39.207Z,101540.64
2019-04-29T13:24:22.099Z,101538.58
2019-04-29T13:26:42.562Z,101526.71
2019-04-29T13:29:08.834Z,101548.72
2019-04-29T13:31:39.005Z,101540.83
2019-04-29T13:34:23.748Z,101538.78
2019-04-29T13:36:40.706Z,101552.49
2019-04-29T13:39:09.676Z,101535.58
2019-04-29T13:41:56.138Z,101546.55
2019-04-29T13:44:09.213Z,101545.43
2019-04-29T13:46:56.035Z,101539.61
2019-04-29T13:49:42.205Z,101529.67
2019-04-29T13:52:11.506Z,101532.15
2019-04-29T13:54:42.391Z,101517.05
2019-04-29T13:57:15.595Z,101504.02
2019-04-29T13:59:50.341Z,101524.38
2019-04-29T14:02:31.235Z,101517.73
2019-04-29T14:05:00.327Z,101521.28
2019-04-29T14:07:29.229Z,101527.02
2019-04-29T14:09:58.021Z,101532.52
2019-04-29T14:12:48.530Z,101522.59
2019-04-29T14:14:58.492Z,101522.56
2019-04-29T14:17:31.791Z,101523.16
2019-04-29T14:19:58.216Z,101517.66
2019-04-29T14:22:27.027Z,101511.77
2019-04-29T14:24:55.813Z,101512.61
2019-04-29T14:27:25.608Z,101517.97
2019-04-29T14:29:54.398Z,101508.93
2019-04-29T14:32:34.647Z,101505.61
2019-04-29T14:35:02.146Z,101499.16
2019-04-29T14:37:30.716Z,101513.59
2019-04-29T14:40:02.859Z,101503.45
2019-04-29T14:42:37.031Z,101507.93
2019-04-29T14:45:43.648Z,101501.37
2019-04-29T14:48:42.174Z,101505.10
2019-04-29T14:51:04.345Z,101505.03
2019-04-29T14:53:32.972Z,101504.39
2019-04-29T14:56:01.499Z,101496.88
2019-04-29T14:58:30.040Z,101507.91
2019-04-29T15:01:18.988Z,101508.96
2019-04-29T15:03:52.352Z,101510.00
2019-04-29T15:06:21.044Z,101519.14
2019-04-29T15:08:49.707Z,101515.98
2019-04-29T15:11:30.885Z,101513.78
2019-04-29T15:13:54.408Z,101507.92
2019-04-29T15:16:34.739Z,101516.92
2019-04-29T15:19:31.412Z,101507.91
2019-04-29T15:22:06.553Z,101513.84
2019-04-29T15:24:35.104Z,101512.44
2019-04-29T15:27:03.877Z,101508.77
2019-04-29T15:29:33.552Z,101520.83
2019-04-29T15:32:03.008Z,101511.30
2019-04-29T15:34:31.561Z,101513.25
2019-04-29T15:37:00.200Z,101519.44
2019-04-29T15:39:28.812Z,101521.97
2019-04-29T15:41:57.632Z,101510.17
2019-04-29T15:44:26.108Z,101518.27
2019-04-29T15:46:54.645Z,101519.33
2019-04-29T15:49:24.733Z,101521.84
2019-04-29T15:51:53.846Z,101518.09
2019-04-29T15:54:25.897Z,101520.88
2019-04-29T15:56:53.088Z,101520.81
2019-04-29T15:59:21.992Z,101524.26
2019-04-29T16:01:50.623Z,101519.45
2019-04-29T16:04:32.213Z,101524.27
2019-04-29T16:07:17.150Z,101513.91
2019-04-29T16:09:54.575Z,101521.41
2019-04-29T16:12:28.221Z,101521.84
2019-04-29T16:14:56.753Z,101528.84
2019-04-29T16:17:25.381Z,101521.83
2019-04-29T16:19:53.897Z,101526.80
2019-04-29T16:22:22.459Z,101527.92
2019-04-29T16:24:51.028Z,101525.79
2019-04-29T16:27:19.581Z,101529.28
2019-04-29T16:29:51.698Z,101526.52
2019-04-29T16:32:30.296Z,101526.67
2019-04-29T16:34:58.839Z,101526.03
2019-04-29T16:37:31.724Z,101531.98
2019-04-29T16:39:59.810Z,101528.04
2019-04-29T16:42:34.780Z,101531.09
2019-04-29T16:45:06.242Z,101529.66
2019-04-29T16:47:34.727Z,101539.69
2019-04-29T16:50:04.705Z,101538.81
2019-04-29T16:52:33.749Z,101538.45
2019-04-29T16:55:04.163Z,101542.37
2019-04-29T16:57:33.435Z,101542.92
2019-04-29T17:00:06.367Z,101547.80
2019-04-29T17:02:32.865Z,101539.88
2019-04-29T17:05:01.390Z,101543.44
2019-04-29T17:07:30.381Z,101543.28
2019-04-29T17:10:17.841Z,101539.48
2019-04-29T17:12:49.221Z,101540.96
2019-04-29T17:15:25.045Z,101538.30
2019-04-29T17:17:48.641Z,101535.31
2019-04-29T17:20:17.364Z,101539.23
2019-04-29T17:22:45.928Z,101543.02
2019-04-29T17:25:16.450Z,101528.75
2019-04-29T17:28:11.829Z,101535.37
2019-04-29T17:30:58.228Z,101532.57
2019-04-29T17:33:49.436Z,101528.47
2019-04-29T17:36:13.119Z,101531.50
2019-04-29T17:38:41.665Z,101525.78
2019-04-29T17:41:10.197Z,101525.63
2019-04-29T17:44:01.013Z,101530.80
2019-04-29T17:46:48.852Z,101524.31
2019-04-29T17:49:33.192Z,101527.53
2019-04-29T17:52:04.264Z,101529.36
2019-04-29T17:54:37.580Z,101527.50
2019-04-29T17:57:26.533Z,101533.41
2019-04-29T18:00:08.294Z,101534.84
2019-04-29T18:03:12.680Z,101527.67
2019-04-29T18:05:57.071Z,101521.52
2019-04-29T18:08:54.971Z,101519.51
2019-04-29T18:11:25.063Z,101525.23
2019-04-29T18:13:56.945Z,101522.25
2019-04-29T18:16:32.615Z,101533.59
2019-04-29T18:19:08.661Z,101542.81
2019-04-29T18:22:02.987Z,101548.41
2019-04-29T18:24:57.499Z,101544.42
2019-04-29T18:27:27.303Z,101550.30
2019-04-29T18:29:56.002Z,101553.53
2019-04-29T18:32:35.303Z,101555.28
2019-04-29T18:34:55.965Z,101558.13
2019-04-29T18:37:24.989Z,101556.33
2019-04-29T18:39:53.555Z,101564.66
2019-04-29T18:42:22.090Z,101565.53
2019-04-29T18:44:59.351Z,101562.02
2019-04-29T18:47:23.068Z,101568.77
2019-04-29T18:49:51.703Z,101570.34
2019-04-29T18:52:25.883Z,101573.58
2019-04-29T18:54:50.656Z,101574.91
2019-04-29T18:57:27.660Z,101584.08
2019-04-29T18:59:49.641Z,101581.25
2019-04-29T19:02:18.170Z,101578.41
2019-04-29T19:04:53.418Z,101581.77
2019-04-29T19:07:22.240Z,101575.06
2019-04-29T19:09:50.893Z,101583.02
2019-04-29T19:12:19.404Z,101578.47
2019-04-29T19:14:48.045Z,101589.58
2019-04-29T19:17:16.638Z,101590.57
2019-04-29T19:19:45.296Z,101596.33
2019-04-29T19:22:15.350Z,101593.49
2019-04-29T19:24:46.269Z,101595.37
2019-04-29T19:27:15.100Z,101599.05
2019-04-29T19:29:44.583Z,101606.55
2019-04-29T19:32:13.402Z,101602.37
2019-04-29T19:34:43.446Z,101609.02
2019-04-29T19:37:12.444Z,101605.16
2019-04-29T19:39:41.209Z,101609.50
2019-04-29T19:42:09.979Z,101613.37
2019-04-29T19:44:38.716Z,101610.05
2019-04-29T19:47:10.808Z,101608.98
2019-04-29T19:49:40.192Z,101609.84
2019-04-29T19:52:08.400Z,101612.63
2019-04-29T19:54:36.923Z,101615.28
2019-04-29T19:57:07.505Z,101614.18
2019-04-29T19:59:36.825Z,101617.20
2019-04-29T20:02:10.033Z,101619.62
2019-04-29T20:04:42.535Z,101617.77
2019-04-29T20:07:12.255Z,101624.34
2019-04-29T20:09:42.409Z,101628.37
2019-04-29T20:12:13.007Z,101631.13
2019-04-29T20:14:42.753Z,101634.96
2019-04-29T20:17:31.252Z,101634.82
2019-04-29T20:20:10.997Z,101631.30
2019-04-29T20:22:43.464Z,101633.13
2019-04-29T20:25:10.441Z,101627.32
2019-04-29T20:27:39.207Z,101628.09
2019-04-29T20:30:16.264Z,101630.16
2019-04-29T20:32:38.777Z,101628.94
2019-04-29T20:35:08.893Z,101632.56
2019-04-29T20:37:37.839Z,101626.78
2019-04-29T20:40:06.964Z,101623.63
2019-04-29T20:42:35.985Z,101621.96
2019-04-29T20:45:05.505Z,101619.31
2019-04-29T20:47:40.446Z,101624.50
2019-04-29T20:50:09.032Z,101623.20
2019-04-29T20:52:52.157Z,101628.03
2019-04-29T20:55:21.430Z,101627.99
2019-04-29T20:57:52.493Z,101630.91
2019-04-29T21:00:25.107Z,101623.78
2019-04-29T21:02:51.937Z,101630.78
2019-04-29T21:05:24.453Z,101624.30
2019-04-29T21:08:02.668Z,101626.44
2019-04-29T21:10:24.115Z,101624.33
2019-04-29T21:13:27.748Z,101620.67
2019-04-29T21:16:06.836Z,101629.48
2019-04-29T21:18:37.272Z,101629.16
2019-04-29T21:21:07.866Z,101621.22
2019-04-29T21:23:37.501Z,101631.62
2019-04-29T21:26:08.690Z,101623.87
2019-04-29T21:28:41.264Z,101624.98
2019-04-29T21:31:07.118Z,101618.75
2019-04-29T21:33:35.687Z,101618.34
2019-04-29T21:36:26.501Z,101621.00
2019-04-29T21:39:15.578Z,101619.11
2019-04-29T21:41:58.717Z,101615.58
2019-04-29T21:44:29.051Z,101613.92
2019-04-29T21:46:59.625Z,101620.59
2019-04-29T21:49:28.268Z,101618.64
2019-04-29T21:51:56.899Z,101621.80
2019-04-29T21:54:25.495Z,101620.25
2019-04-29T21:56:55.577Z,101617.91
2019-04-29T21:59:25.852Z,101616.81
2019-04-29T22:01:56.173Z,101620.11
2019-04-29T22:04:25.529Z,101609.73
2019-04-29T22:06:55.670Z,101617.23
2019-04-29T22:09:35.300Z,101608.63
2019-04-29T22:11:55.572Z,101606.84
2019-04-29T22:14:24.686Z,101602.38
2019-04-29T22:16:57.093Z,101605.34
2019-04-29T22:19:27.924Z,101606.08
2019-04-29T22:22:00.193Z,101609.75
2019-04-29T22:24:27.641Z,101606.23
2019-04-29T22:27:03.956Z,101606.56
2019-04-29T22:29:27.079Z,101608.28
2019-04-29T22:31:56.014Z,101609.97
2019-04-29T22:34:25.307Z,101601.80
2019-04-29T22:36:58.291Z,101606.63
2019-04-29T22:39:26.783Z,101599.48
2019-04-29T22:42:07.199Z,101607.11
2019-04-29T22:44:36.101Z,101604.33
2019-04-29T22:47:05.680Z,101605.34
2019-04-29T22:49:34.581Z,101614.88
2019-04-29T22:52:03.488Z,101605.98
2019-04-29T22:54:32.200Z,101604.88
2019-04-29T22:57:00.832Z,101609.63
2019-04-29T22:59:29.460Z,101604.00
2019-04-29T23:01:57.988Z,101604.66
2019-04-29T23:04:26.739Z,101601.22
2019-04-29T23:06:55.346Z,101602.39
2019-04-29T23:09:23.892Z,101602.56
2019-04-29T23:11:52.412Z,101597.58
2019-04-29T23:14:20.981Z,101594.55
2019-04-29T23:16:49.628Z,101597.44
2019-04-29T23:19:18.657Z,101594.03
2019-04-29T23:22:05.922Z,101598.06
2019-04-29T23:24:55.840Z,101599.67
2019-04-29T23:27:25.859Z,101595.76
2019-04-29T23:29:54.848Z,101593.16
2019-04-29T23:32:25.242Z,101586.63
2019-04-29T23:34:54.999Z,101591.77
2019-04-29T23:37:29.152Z,101589.64
2019-04-29T23:39:55.763Z,101589.90
2019-04-29T23:42:26.105Z,101590.85
2019-04-29T23:44:55.055Z,101589.92
2019-04-29T23:47:25.766Z,101587.24
2019-04-29T23:49:54.460Z,101585.17
2019-04-29T23:52:23.110Z,101580.07
2019-04-29T23:54:51.786Z,101581.47
2019-04-29T23:57:27.340Z,101582.20
